EVLA

Liepāja International Airport

Liepāja, Latvia
METAR EVLA 221720Z AUTO 11006KT 9999 FEW062/// SCT070/// BKN095/// 14/11 Q1018
Observed Flight Rules
May-22 @ 17:20 UTC (36 minutes ago) Visual Flight Rules
Wind Visibility Clouds
110° at 6 knots 10,000+ meters
  • Few at 6,200' AGL
  • Scattered at 7,000' AGL
  • Broken at 9,500' AGL
Temperatures Readings
Current 14°C / 57°F
Dewpoint 11°C / 52°F
Humidity 82%
Altimeter 30.06" Hg
Pressure 1018 hPa
Elevation 4
METAR EVLA 221720Z AUTO 11006KT 9999 FEW062/// SCT070/// BKN095/// 14/11 Q1018
Observed Flight Rules
May-22 @ 17:20 UTC
(36 minutes ago)
VFR
Wind Visibility
110° at 6 knots 10,000+ meters
Clouds
  • Few at 6,200' AGL
  • Scattered at 7,000' AGL
  • Broken at 9,500' AGL
Temperature Dewpoint
14°C / 57°F 11°C / 52°F
Humidity Altimeter Pressure
82% 30.06" Hg 1018 hPa